Bolton, Canada
Current Conditions -  °F | °C
As of 9:00 PM on Saturday 22 Nov 2014 (Local Time) from CYYZ Reporting Station
Rain Showers Rain Showers  
Wind Chill: 35°   Ceiling: 1100
Heat Index: 41°   Visibility: 8mi
Dew Point: 39°   Wind: 10mph
Humidity: 93%   Direction: 230°SW
Pressure: 29.93"   Gusts: NA
Location:  43.88°N, 79.73°W
Report Text: CYYZ 230200Z 23009KT 8SM -SHRA OVC011 05/04 A2993 RMK SC8 SLP141
Loading
Personal Weather Stations






























Interactive Weather Map New forecast layout! Learn more

10-Day Weather Forecast

Advertisements
Track Severe Weather on mobile